createdAt,value
2023-03-12T00:02:09.965Z,12.70
2023-03-12T00:04:58.709Z,10.97
2023-03-12T00:07:47.453Z,12.17
2023-03-12T00:10:36.712Z,12.70
2023-03-12T00:13:25.537Z,14.23
2023-03-12T00:16:17.158Z,12.50
2023-03-12T00:19:05.935Z,12.10
2023-03-12T00:21:54.784Z,13.90
2023-03-12T00:24:43.642Z,13.90
2023-03-12T00:27:32.684Z,14.53
2023-03-12T00:30:21.765Z,19.00
2023-03-12T00:33:12.885Z,20.07
2023-03-12T00:36:02.328Z,20.70
2023-03-12T00:38:51.110Z,15.60
2023-03-12T00:41:39.805Z,15.33
2023-03-12T00:44:29.136Z,19.53
2023-03-12T00:47:17.842Z,15.23
2023-03-12T00:50:09.024Z,15.03
2023-03-12T00:52:57.963Z,14.80
2023-03-12T00:55:46.772Z,14.67
2023-03-12T00:58:35.503Z,15.30
2023-03-12T01:01:24.723Z,16.20
2023-03-12T01:04:13.840Z,14.20
2023-03-12T01:07:04.010Z,14.70
2023-03-12T01:09:52.704Z,17.17
2023-03-12T01:12:41.423Z,19.47
2023-03-12T01:15:31.016Z,16.73
2023-03-12T01:18:19.714Z,17.70
2023-03-12T01:21:08.610Z,19.47
2023-03-12T01:23:58.994Z,17.70
2023-03-12T01:26:47.777Z,16.93
2023-03-12T01:29:36.481Z,20.40
2023-03-12T01:32:25.440Z,18.53
2023-03-12T01:35:14.501Z,22.17
2023-03-12T01:38:03.425Z,19.10
2023-03-12T01:40:53.480Z,17.40
2023-03-12T01:43:43.233Z,16.43
2023-03-12T01:46:34.881Z,18.13
2023-03-12T01:49:33.441Z,19.30
2023-03-12T01:52:25.914Z,19.07
2023-03-12T01:55:18.964Z,22.30
2023-03-12T01:58:11.168Z,22.07
2023-03-12T02:01:00.858Z,19.03
2023-03-12T02:03:53.224Z,21.30
2023-03-12T02:06:49.538Z,17.87
2023-03-12T02:09:42.373Z,19.90
2023-03-12T02:12:31.267Z,16.73
2023-03-12T02:15:21.730Z,16.43
2023-03-12T02:18:14.821Z,16.90
2023-03-12T02:21:15.088Z,28.67
2023-03-12T02:24:12.420Z,17.70
2023-03-12T02:27:03.619Z,18.23
2023-03-12T02:29:52.726Z,14.33
2023-03-12T02:32:41.949Z,14.73
2023-03-12T02:35:31.214Z,13.77
2023-03-12T02:38:35.510Z,14.83
2023-03-12T02:41:27.967Z,14.00
2023-03-12T02:44:21.121Z,18.53
2023-03-12T02:47:12.432Z,18.63
2023-03-12T02:50:01.135Z,13.37
2023-03-12T02:52:49.854Z,14.60
2023-03-12T02:55:38.611Z,13.90
2023-03-12T02:58:27.394Z,14.23
2023-03-12T03:01:18.403Z,12.43
2023-03-12T03:04:10.125Z,11.07
2023-03-12T03:06:59.023Z,13.13
2023-03-12T03:09:47.888Z,11.53
2023-03-12T03:12:37.906Z,12.37
2023-03-12T03:15:27.955Z,14.00
2023-03-12T03:18:18.141Z,11.60
2023-03-12T03:21:08.953Z,14.53
2023-03-12T03:23:58.636Z,12.23
2023-03-12T03:26:47.617Z,10.87
2023-03-12T03:29:36.539Z,11.07
2023-03-12T03:32:25.532Z,11.03
2023-03-12T03:35:15.719Z,12.73
2023-03-12T03:38:04.906Z,9.73
2023-03-12T03:40:53.997Z,10.87
2023-03-12T03:43:42.918Z,9.43
2023-03-12T03:46:32.355Z,12.90
2023-03-12T03:49:24.909Z,13.20
2023-03-12T03:52:15.043Z,12.70
2023-03-12T03:55:03.966Z,10.03
2023-03-12T03:57:53.636Z,14.57
2023-03-12T04:00:44.974Z,13.33
2023-03-12T04:03:34.141Z,9.03
2023-03-12T04:06:24.150Z,13.37
2023-03-12T04:09:14.390Z,12.70
2023-03-12T04:12:03.413Z,11.70
2023-03-12T04:14:52.486Z,13.17
2023-03-12T04:17:41.412Z,12.07
2023-03-12T04:20:30.437Z,11.90
2023-03-12T04:23:19.307Z,14.60
2023-03-12T04:26:09.947Z,12.97
2023-03-12T04:28:59.134Z,11.60
2023-03-12T04:31:47.946Z,11.53
2023-03-12T04:34:36.702Z,10.13
2023-03-12T04:37:25.547Z,13.10
2023-03-12T04:40:15.635Z,10.30
2023-03-12T04:43:05.853Z,12.20
2023-03-12T04:45:54.639Z,12.03
2023-03-12T04:48:43.418Z,11.37
2023-03-12T04:51:33.350Z,11.60
2023-03-12T04:54:24.693Z,11.53
2023-03-12T04:57:14.104Z,9.97
2023-03-12T05:00:10.996Z,10.70
2023-03-12T05:03:00.191Z,9.33
2023-03-12T05:05:49.371Z,9.37
2023-03-12T05:08:38.063Z,10.33
2023-03-12T05:11:27.194Z,11.47
2023-03-12T05:14:16.739Z,12.77
2023-03-12T05:17:08.910Z,9.47
2023-03-12T05:19:58.662Z,9.00
2023-03-12T05:22:47.883Z,8.63
2023-03-12T05:25:40.756Z,12.30
2023-03-12T05:28:30.722Z,11.37
2023-03-12T05:31:23.160Z,12.83
2023-03-12T05:34:15.260Z,10.63
2023-03-12T05:37:06.378Z,10.87
2023-03-12T05:39:55.719Z,10.13
2023-03-12T05:42:44.573Z,9.30
2023-03-12T05:45:34.357Z,11.63
2023-03-12T05:48:23.174Z,13.37
2023-03-12T05:51:13.419Z,12.17
2023-03-12T05:54:02.551Z,11.30
2023-03-12T05:56:51.410Z,11.27
2023-03-12T05:59:41.413Z,11.07
2023-03-12T06:02:31.256Z,16.77
2023-03-12T06:05:21.023Z,9.20
2023-03-12T06:08:11.268Z,11.83
2023-03-12T06:11:00.493Z,12.40
2023-03-12T06:13:49.839Z,11.77
2023-03-12T06:16:39.530Z,9.40
2023-03-12T06:19:28.870Z,12.00
2023-03-12T06:22:17.628Z,9.10
2023-03-12T06:25:08.812Z,12.47
2023-03-12T06:27:57.747Z,12.47
2023-03-12T06:30:46.614Z,8.23
2023-03-12T06:33:36.099Z,8.90
2023-03-12T06:36:24.927Z,7.67
2023-03-12T06:39:14.016Z,10.70
2023-03-12T06:42:04.111Z,8.73
2023-03-12T06:44:53.574Z,7.93
2023-03-12T06:47:42.288Z,13.67
2023-03-12T06:50:31.109Z,8.47
2023-03-12T06:53:20.268Z,8.47
2023-03-12T06:56:09.508Z,10.63
2023-03-12T06:58:59.861Z,10.17
2023-03-12T07:01:48.540Z,9.70
2023-03-12T07:04:37.324Z,7.23
2023-03-12T07:07:26.025Z,9.53
2023-03-12T07:10:14.764Z,11.57
2023-03-12T07:13:03.519Z,6.70
2023-03-12T07:15:53.625Z,6.97
2023-03-12T07:18:42.508Z,8.13
2023-03-12T07:21:31.930Z,9.07
2023-03-12T07:24:20.692Z,9.43
2023-03-12T07:27:09.902Z,9.70
2023-03-12T07:29:58.631Z,10.97
2023-03-12T07:32:48.768Z,8.20
2023-03-12T07:35:38.821Z,8.57
2023-03-12T07:38:28.070Z,9.43
2023-03-12T07:41:16.796Z,10.37
2023-03-12T07:44:05.567Z,9.43
2023-03-12T07:46:54.658Z,7.10
2023-03-12T07:49:45.687Z,8.17
2023-03-12T07:52:34.533Z,7.20
2023-03-12T07:55:23.461Z,7.07
2023-03-12T07:58:13.043Z,8.37
2023-03-12T08:01:02.161Z,7.10
2023-03-12T08:03:51.191Z,6.37
2023-03-12T08:06:42.904Z,7.57
2023-03-12T08:09:32.499Z,5.50
2023-03-12T08:12:21.218Z,6.23
2023-03-12T08:15:12.782Z,7.43
2023-03-12T08:18:01.586Z,5.37
2023-03-12T08:20:52.722Z,4.40
2023-03-12T08:23:42.836Z,6.77
2023-03-12T08:26:31.694Z,4.10
2023-03-12T08:29:20.449Z,3.67
2023-03-12T08:32:11.060Z,5.10
2023-03-12T08:34:59.807Z,5.33
2023-03-12T08:37:48.538Z,3.43
2023-03-12T08:40:38.620Z,5.37
2023-03-12T08:43:29.387Z,5.10
2023-03-12T08:46:18.421Z,4.27
2023-03-12T08:49:07.206Z,3.90
2023-03-12T08:51:55.898Z,3.33
2023-03-12T08:54:44.772Z,5.83
2023-03-12T08:57:34.890Z,5.90
2023-03-12T09:00:25.189Z,4.80
2023-03-12T09:03:15.054Z,5.10
2023-03-12T09:06:06.141Z,5.50
2023-03-12T09:08:54.862Z,5.57
2023-03-12T09:11:43.993Z,5.67
2023-03-12T09:15:01.886Z,4.77
2023-03-12T09:17:42.969Z,5.03
2023-03-12T09:20:31.905Z,4.60
2023-03-12T09:23:20.906Z,2.97
2023-03-12T09:26:11.289Z,4.33
2023-03-12T09:29:00.017Z,4.90
2023-03-12T09:31:50.188Z,3.83
2023-03-12T09:34:38.946Z,3.60
2023-03-12T09:37:28.055Z,5.93
2023-03-12T09:40:19.233Z,2.73
2023-03-12T09:43:23.695Z,4.20
2023-03-12T09:46:17.363Z,3.83
2023-03-12T09:49:15.182Z,3.43
2023-03-12T09:52:09.939Z,5.13
2023-03-12T09:55:07.269Z,4.83
2023-03-12T09:57:57.961Z,3.90
2023-03-12T10:00:47.691Z,5.57
2023-03-12T10:04:02.460Z,3.17
2023-03-12T10:06:58.018Z,4.93
2023-03-12T10:10:22.035Z,4.33
2023-03-12T10:13:19.482Z,4.63
2023-03-12T10:16:17.703Z,4.40
2023-03-12T10:19:22.770Z,5.70
2023-03-12T10:22:25.708Z,3.60
2023-03-12T10:25:22.051Z,4.33
2023-03-12T10:28:18.389Z,5.03
2023-03-12T10:31:14.213Z,4.87
2023-03-12T10:34:12.329Z,7.10
2023-03-12T10:37:06.560Z,4.60
2023-03-12T10:39:59.719Z,6.77
2023-03-12T10:42:49.136Z,6.40
2023-03-12T10:45:43.730Z,8.87
2023-03-12T10:48:32.443Z,4.73
2023-03-12T10:51:21.182Z,5.23
2023-03-12T10:54:23.048Z,3.90
2023-03-12T10:57:15.335Z,6.60
2023-03-12T11:00:12.087Z,8.93
2023-03-12T11:03:03.708Z,7.73
2023-03-12T11:05:55.928Z,5.93
2023-03-12T11:09:16.083Z,5.73
2023-03-12T11:12:26.765Z,6.90
2023-03-12T11:15:23.044Z,8.03
2023-03-12T11:18:34.236Z,4.87
2023-03-12T11:21:24.133Z,6.17
2023-03-12T11:24:14.381Z,5.50
2023-03-12T11:27:07.552Z,2.47
2023-03-12T11:29:57.674Z,4.17
2023-03-12T11:32:49.209Z,4.70
2023-03-12T11:35:46.697Z,6.43
2023-03-12T11:38:41.450Z,4.30
2023-03-12T11:41:43.737Z,10.13
2023-03-12T11:44:40.125Z,4.60
2023-03-12T11:47:48.962Z,4.57
2023-03-12T11:50:51.789Z,5.87
2023-03-12T11:53:56.525Z,5.53
2023-03-12T11:56:50.531Z,5.60
2023-03-12T11:59:50.376Z,3.97
2023-03-12T12:03:15.024Z,4.87
2023-03-12T12:06:08.938Z,6.63
2023-03-12T12:09:12.953Z,8.63
2023-03-12T12:12:14.672Z,4.37
2023-03-12T12:15:15.940Z,3.23
2023-03-12T12:18:25.639Z,7.30
2023-03-12T12:21:28.748Z,8.97
2023-03-12T12:24:30.240Z,7.00
2023-03-12T12:27:22.566Z,8.50
2023-03-12T12:30:19.858Z,7.60
2023-03-12T12:33:24.474Z,8.60
2023-03-12T12:36:15.205Z,5.77
2023-03-12T12:39:11.372Z,7.43
2023-03-12T12:42:04.243Z,4.77
2023-03-12T12:44:55.144Z,6.13
2023-03-12T12:47:48.356Z,6.13
2023-03-12T12:50:40.289Z,6.77
2023-03-12T12:53:33.916Z,9.13
2023-03-12T12:56:30.706Z,6.53
2023-03-12T12:59:27.853Z,4.50
2023-03-12T13:02:20.353Z,4.37
2023-03-12T13:05:21.044Z,5.70
2023-03-12T13:08:35.549Z,4.10
2023-03-12T13:11:27.604Z,7.77
2023-03-12T13:14:39.512Z,8.17
2023-03-12T13:17:31.374Z,6.03
2023-03-12T13:20:22.145Z,5.90
2023-03-12T13:23:27.276Z,5.53
2023-03-12T13:26:24.962Z,5.77
2023-03-12T13:29:22.192Z,4.60
2023-03-12T13:32:38.518Z,3.60
2023-03-12T13:35:34.484Z,4.43
2023-03-12T13:38:37.922Z,3.07
2023-03-12T13:41:36.088Z,4.07
2023-03-12T13:44:33.110Z,3.70
2023-03-12T13:47:24.384Z,6.30
2023-03-12T13:50:16.716Z,6.23
2023-03-12T13:53:08.063Z,4.63
2023-03-12T13:56:08.291Z,6.00
2023-03-12T13:59:00.030Z,5.90
2023-03-12T14:01:52.203Z,4.37
2023-03-12T14:04:42.772Z,3.60
2023-03-12T14:08:11.189Z,4.97
2023-03-12T14:11:33.496Z,8.53
2023-03-12T14:14:45.189Z,4.77
2023-03-12T14:17:35.790Z,8.47
2023-03-12T14:20:25.568Z,7.10
2023-03-12T14:23:18.270Z,5.13
2023-03-12T14:26:09.939Z,5.00
2023-03-12T14:29:02.616Z,5.57
2023-03-12T14:31:52.296Z,5.00
2023-03-12T14:34:43.780Z,5.37
2023-03-12T14:37:39.403Z,6.20
2023-03-12T14:40:40.751Z,5.90
2023-03-12T14:43:33.278Z,4.80
2023-03-12T14:46:24.205Z,3.87
2023-03-12T14:49:21.651Z,4.40
2023-03-12T14:52:13.622Z,5.17
2023-03-12T14:55:05.120Z,5.90
2023-03-12T14:58:06.060Z,8.60
2023-03-12T15:01:01.045Z,4.13
2023-03-12T15:03:54.040Z,4.30
2023-03-12T15:06:47.922Z,5.33
2023-03-12T15:09:38.304Z,4.53
2023-03-12T15:12:30.740Z,6.93
2023-03-12T15:15:37.321Z,4.73
2023-03-12T15:18:31.237Z,4.77
2023-03-12T15:21:20.395Z,8.67
2023-03-12T15:24:13.496Z,6.73
2023-03-12T15:27:20.660Z,5.97
2023-03-12T15:30:27.109Z,6.53
2023-03-12T15:33:25.990Z,6.07
2023-03-12T15:36:26.713Z,6.13
2023-03-12T15:39:26.494Z,6.00
2023-03-12T15:42:19.704Z,5.73
2023-03-12T15:45:20.064Z,5.47
2023-03-12T15:48:22.879Z,5.73
2023-03-12T15:51:17.585Z,6.33
2023-03-12T15:54:26.268Z,6.60
2023-03-12T15:57:34.311Z,3.93
2023-03-12T16:00:26.983Z,7.07
2023-03-12T16:03:17.953Z,5.67
2023-03-12T16:06:07.221Z,5.93
2023-03-12T16:08:58.992Z,5.63
2023-03-12T16:11:50.324Z,7.83
2023-03-12T16:14:40.144Z,7.97
2023-03-12T16:17:29.000Z,4.23
2023-03-12T16:20:18.936Z,7.87
2023-03-12T16:23:07.840Z,4.07
2023-03-12T16:25:56.880Z,4.70
2023-03-12T16:28:46.967Z,7.10
2023-03-12T16:31:36.309Z,7.27
2023-03-12T16:34:25.498Z,7.27
2023-03-12T16:37:14.634Z,4.73
2023-03-12T16:40:04.272Z,6.03
2023-03-12T16:42:55.766Z,5.60
2023-03-12T16:45:48.091Z,5.60
2023-03-12T16:48:37.162Z,4.70
2023-03-12T16:51:28.407Z,6.90
2023-03-12T16:54:20.872Z,8.43
2023-03-12T16:57:15.950Z,5.27
2023-03-12T17:00:08.008Z,8.00
2023-03-12T17:02:59.190Z,8.77
2023-03-12T17:05:47.957Z,8.37
2023-03-12T17:08:37.195Z,7.90
2023-03-12T17:11:28.913Z,7.17
2023-03-12T17:14:22.337Z,10.13
2023-03-12T17:17:11.330Z,9.00
2023-03-12T17:20:01.449Z,10.63
2023-03-12T17:22:50.292Z,8.37
2023-03-12T17:25:44.192Z,10.07
2023-03-12T17:28:33.420Z,9.27
2023-03-12T17:31:22.196Z,10.10
2023-03-12T17:34:11.184Z,12.40
2023-03-12T17:37:04.399Z,12.20
2023-03-12T17:39:56.444Z,13.73
2023-03-12T17:42:45.198Z,12.13
2023-03-12T17:45:34.147Z,14.97
2023-03-12T17:48:23.552Z,12.77
2023-03-12T17:51:12.962Z,9.63
2023-03-12T17:54:03.621Z,11.93
2023-03-12T17:56:52.304Z,12.70
2023-03-12T17:59:41.385Z,15.30
2023-03-12T18:02:30.058Z,15.67
2023-03-12T18:05:20.093Z,15.77
2023-03-12T18:08:09.910Z,17.13
2023-03-12T18:11:01.911Z,14.73
2023-03-12T18:13:50.656Z,17.40
2023-03-12T18:16:39.699Z,16.87
2023-03-12T18:19:29.545Z,15.30
2023-03-12T18:22:19.832Z,15.63
2023-03-12T18:25:10.014Z,16.93
2023-03-12T18:28:00.098Z,15.57
2023-03-12T18:30:49.347Z,18.90
2023-03-12T18:33:38.990Z,19.30
2023-03-12T18:36:27.820Z,17.53
2023-03-12T18:39:16.795Z,21.97
2023-03-12T18:42:05.830Z,24.20
2023-03-12T18:44:55.875Z,19.93
2023-03-12T18:47:45.524Z,16.97
2023-03-12T18:50:34.379Z,21.60
2023-03-12T18:53:23.168Z,16.57
2023-03-12T18:56:15.274Z,17.03
2023-03-12T18:59:04.699Z,20.23
2023-03-12T19:01:54.925Z,18.37
2023-03-12T19:04:43.748Z,18.63
2023-03-12T19:07:32.443Z,20.10
2023-03-12T19:10:21.353Z,18.87
2023-03-12T19:13:10.382Z,20.97
2023-03-12T19:16:01.131Z,22.00
2023-03-12T19:18:52.296Z,17.40
2023-03-12T19:21:41.165Z,19.93
2023-03-12T19:24:29.882Z,17.67
2023-03-12T19:27:18.840Z,15.07
2023-03-12T19:30:09.057Z,19.53
2023-03-12T19:32:57.889Z,15.03
2023-03-12T19:35:48.336Z,16.93
2023-03-12T19:38:37.156Z,17.37
2023-03-12T19:41:26.018Z,17.97
2023-03-12T19:44:14.693Z,20.70
2023-03-12T19:47:05.583Z,16.03
2023-03-12T19:49:54.476Z,17.20
2023-03-12T19:52:44.654Z,15.93
2023-03-12T19:55:33.934Z,17.07
2023-03-12T19:58:23.131Z,15.80
2023-03-12T20:01:12.129Z,19.57
2023-03-12T20:04:00.965Z,16.97
2023-03-12T20:06:49.853Z,15.00
2023-03-12T20:09:40.132Z,16.00
2023-03-12T20:12:28.912Z,14.20
2023-03-12T20:15:18.399Z,15.57
2023-03-12T20:18:07.348Z,16.80
2023-03-12T20:20:56.069Z,17.67
2023-03-12T20:23:44.812Z,16.90
2023-03-12T20:26:35.366Z,18.63
2023-03-12T20:29:28.019Z,15.97
2023-03-12T20:32:16.973Z,14.83
2023-03-12T20:35:06.289Z,16.60
2023-03-12T20:37:54.999Z,18.73
2023-03-12T20:40:47.610Z,20.23
2023-03-12T20:43:37.712Z,17.57
2023-03-12T20:46:27.289Z,19.10
2023-03-12T20:49:16.425Z,17.97
2023-03-12T20:52:05.834Z,19.67
2023-03-12T20:54:54.636Z,21.13
2023-03-12T20:57:43.394Z,20.23
2023-03-12T21:00:33.797Z,23.50
2023-03-12T21:03:24.599Z,20.53
2023-03-12T21:06:17.242Z,17.30
2023-03-12T21:09:06.066Z,16.37
2023-03-12T21:11:54.957Z,18.50
2023-03-12T21:14:43.988Z,21.00
2023-03-12T21:17:34.600Z,20.23
2023-03-12T21:20:23.774Z,20.27
2023-03-12T21:23:13.122Z,18.63
2023-03-12T21:26:07.799Z,16.47
2023-03-12T21:28:57.860Z,21.27
2023-03-12T21:31:46.519Z,15.17
2023-03-12T21:34:36.821Z,21.43
2023-03-12T21:37:26.094Z,16.53
2023-03-12T21:40:19.389Z,21.53
2023-03-12T21:43:08.216Z,22.40
2023-03-12T21:45:57.187Z,18.30
2023-03-12T21:48:51.025Z,17.13
2023-03-12T21:51:41.125Z,18.93
2023-03-12T21:54:32.930Z,18.40
2023-03-12T21:57:21.627Z,20.00
2023-03-12T22:00:14.051Z,17.60
2023-03-12T22:03:02.855Z,18.63
2023-03-12T22:05:54.749Z,19.13
2023-03-12T22:08:47.091Z,19.37
2023-03-12T22:11:35.934Z,20.33
2023-03-12T22:14:25.548Z,23.67
2023-03-12T22:17:14.424Z,22.67
2023-03-12T22:20:05.236Z,25.73
2023-03-12T22:22:54.078Z,29.53
2023-03-12T22:25:44.124Z,26.20
2023-03-12T22:28:33.023Z,21.10
2023-03-12T22:31:23.805Z,25.50
2023-03-12T22:34:12.615Z,29.47
2023-03-12T22:37:01.354Z,25.63
2023-03-12T22:39:50.835Z,25.50
2023-03-12T22:42:41.168Z,25.43
2023-03-12T22:45:29.875Z,22.43
2023-03-12T22:48:18.502Z,23.77
2023-03-12T22:51:07.652Z,27.03
2023-03-12T22:53:56.698Z,24.20
2023-03-12T22:56:45.647Z,25.03
2023-03-12T22:59:35.792Z,25.63
2023-03-12T23:02:24.425Z,24.00
2023-03-12T23:05:13.222Z,28.53
2023-03-12T23:08:02.517Z,21.40
2023-03-12T23:10:55.992Z,21.13
2023-03-12T23:13:46.577Z,23.90
2023-03-12T23:16:36.591Z,26.53
2023-03-12T23:19:25.344Z,21.13
2023-03-12T23:22:14.194Z,24.97
2023-03-12T23:25:03.139Z,24.57
2023-03-12T23:27:52.255Z,25.83
2023-03-12T23:30:40.972Z,25.90
2023-03-12T23:33:32.213Z,23.80
2023-03-12T23:36:22.902Z,24.60
2023-03-12T23:39:12.592Z,27.07
2023-03-12T23:42:01.284Z,24.23
2023-03-12T23:44:49.965Z,29.97
2023-03-12T23:47:39.150Z,23.33
2023-03-12T23:50:29.149Z,21.00
2023-03-12T23:53:17.969Z,22.07
2023-03-12T23:56:09.169Z,23.13
2023-03-12T23:58:58.545Z,21.83
